createdAt,value
2023-03-18T00:00:01.150Z,51.47
2023-03-18T00:03:50.654Z,51.40
2023-03-18T00:07:19.213Z,51.48
2023-03-18T00:10:46.974Z,51.61
2023-03-18T00:14:25.744Z,51.51
2023-03-18T00:17:55.647Z,51.55
2023-03-18T00:21:24.847Z,51.56
2023-03-18T00:24:53.671Z,51.70
2023-03-18T00:28:21.195Z,51.79
2023-03-18T00:31:49.423Z,51.78
2023-03-18T00:35:17.454Z,51.79
2023-03-18T00:38:49.469Z,51.57
2023-03-18T00:42:17.777Z,51.82
2023-03-18T00:45:45.641Z,51.76
2023-03-18T00:49:12.797Z,51.95
2023-03-18T00:52:40.727Z,52.02
2023-03-18T00:56:09.110Z,51.93
2023-03-18T00:59:37.091Z,52.02
2023-03-18T01:03:09.454Z,52.15
2023-03-18T01:06:39.584Z,52.18
2023-03-18T01:10:10.885Z,52.45
2023-03-18T01:13:39.281Z,52.22
2023-03-18T01:17:07.481Z,52.35
2023-03-18T01:20:35.638Z,52.36
2023-03-18T01:24:04.761Z,52.48
2023-03-18T01:27:33.811Z,52.51
2023-03-18T01:31:03.963Z,52.40
2023-03-18T01:34:31.200Z,52.67
2023-03-18T01:41:27.476Z,52.62
2023-03-18T01:45:20.058Z,52.98
2023-03-18T01:48:48.911Z,52.93
2023-03-18T01:52:20.449Z,52.76
2023-03-18T01:55:52.458Z,53.18
2023-03-18T01:59:23.357Z,52.86
2023-03-18T02:02:53.952Z,53.09
2023-03-18T02:06:21.330Z,53.14
2023-03-18T02:10:00.798Z,53.36
2023-03-18T02:13:28.948Z,53.14
2023-03-18T02:17:02.347Z,53.05
2023-03-18T02:20:42.577Z,53.10
2023-03-18T02:24:24.483Z,53.43
2023-03-18T02:27:56.433Z,53.16
2023-03-18T02:31:27.554Z,53.07
2023-03-18T02:34:55.879Z,53.68
2023-03-18T02:38:25.215Z,53.37
2023-03-18T02:41:55.573Z,53.46
2023-03-18T02:45:37.995Z,53.68
2023-03-18T02:49:12.373Z,54.00
2023-03-18T02:52:40.113Z,53.74
2023-03-18T02:56:09.514Z,53.87
2023-03-18T02:59:36.878Z,53.62
2023-03-18T03:03:08.467Z,53.97
2023-03-18T03:06:38.551Z,53.66
2023-03-18T03:10:08.612Z,53.71
2023-03-18T03:13:36.149Z,54.19
2023-03-18T03:17:04.543Z,54.25
2023-03-18T03:20:33.891Z,54.23
2023-03-18T03:24:02.047Z,54.11
2023-03-18T03:27:29.647Z,54.31
2023-03-18T03:30:59.589Z,54.45
2023-03-18T03:34:27.690Z,54.55
2023-03-18T03:37:55.187Z,54.45
2023-03-18T03:41:23.415Z,54.66
2023-03-18T03:44:51.374Z,54.66
2023-03-18T03:48:18.390Z,54.61
2023-03-18T03:51:45.830Z,54.60
2023-03-18T03:55:17.705Z,54.50
2023-03-18T03:58:45.074Z,54.71
2023-03-18T04:02:12.670Z,54.60
2023-03-18T04:05:40.190Z,54.87
2023-03-18T04:09:07.250Z,54.95
2023-03-18T04:12:34.852Z,54.80
2023-03-18T04:16:02.639Z,55.05
2023-03-18T04:19:33.645Z,54.78
2023-03-18T04:23:08.440Z,55.01
2023-03-18T04:26:35.721Z,54.98
2023-03-18T04:30:04.341Z,55.14
2023-03-18T04:33:47.682Z,55.11
2023-03-18T04:37:20.248Z,55.21
2023-03-18T04:40:49.451Z,55.34
2023-03-18T04:44:18.087Z,55.23
2023-03-18T04:47:49.740Z,55.35
2023-03-18T04:51:17.074Z,55.33
2023-03-18T04:54:44.859Z,55.22
2023-03-18T04:58:12.552Z,55.61
2023-03-18T05:01:43.187Z,55.46
2023-03-18T05:05:12.086Z,55.23
2023-03-18T05:08:43.858Z,55.43
2023-03-18T05:12:16.127Z,55.17
2023-03-18T05:15:43.092Z,55.28
2023-03-18T05:19:09.950Z,55.68
2023-03-18T05:22:39.699Z,55.44
2023-03-18T05:26:13.249Z,55.33
2023-03-18T05:29:42.260Z,55.49
2023-03-18T05:33:14.143Z,55.55
2023-03-18T05:36:52.332Z,55.85
2023-03-18T05:40:19.986Z,55.66
2023-03-18T05:43:58.789Z,55.71
2023-03-18T05:47:26.158Z,55.50
2023-03-18T05:51:01.617Z,55.57
2023-03-18T05:54:30.456Z,55.68
2023-03-18T05:57:57.856Z,55.74
2023-03-18T06:01:26.954Z,55.69
2023-03-18T06:04:54.880Z,55.67
2023-03-18T06:08:22.573Z,55.70
2023-03-18T06:11:49.573Z,56.04
2023-03-18T06:15:17.521Z,55.93
2023-03-18T06:18:45.294Z,56.11
2023-03-18T06:22:15.622Z,56.08
2023-03-18T06:25:43.457Z,55.80
2023-03-18T06:29:11.017Z,55.84
2023-03-18T06:32:38.640Z,55.80
2023-03-18T06:36:06.329Z,56.11
2023-03-18T06:39:32.988Z,55.76
2023-03-18T06:43:03.448Z,55.89
2023-03-18T06:46:34.743Z,55.81
2023-03-18T06:50:02.411Z,55.86
2023-03-18T06:53:31.918Z,55.72
2023-03-18T06:56:59.023Z,56.00
2023-03-18T07:00:27.186Z,55.73
2023-03-18T07:03:54.286Z,55.62
2023-03-18T07:07:22.546Z,55.46
2023-03-18T07:10:50.356Z,55.56
2023-03-18T07:14:18.656Z,55.52
2023-03-18T07:17:46.927Z,55.26
2023-03-18T07:21:14.076Z,55.36
2023-03-18T07:24:41.033Z,55.45
2023-03-18T07:28:07.798Z,55.39
2023-03-18T07:31:34.444Z,55.25
2023-03-18T07:35:01.026Z,55.26
2023-03-18T07:38:27.830Z,55.03
2023-03-18T07:41:54.515Z,55.04
2023-03-18T07:45:23.374Z,54.89
2023-03-18T07:48:50.704Z,54.86
2023-03-18T07:52:18.330Z,54.76
2023-03-18T07:55:46.489Z,54.59
2023-03-18T07:59:12.965Z,54.49
2023-03-18T08:02:40.354Z,54.37
2023-03-18T08:06:08.306Z,54.46
2023-03-18T08:09:35.049Z,54.33
2023-03-18T08:13:01.632Z,54.41
2023-03-18T08:16:31.399Z,54.69
2023-03-18T08:19:58.638Z,54.75
2023-03-18T08:23:26.058Z,54.64
2023-03-18T08:26:52.721Z,54.30
2023-03-18T08:30:20.103Z,54.25
2023-03-18T08:33:49.675Z,54.24
2023-03-18T08:37:16.369Z,54.17
2023-03-18T08:40:46.577Z,54.18
2023-03-18T08:44:13.384Z,54.04
2023-03-18T08:47:40.072Z,53.43
2023-03-18T08:51:09.501Z,53.55
2023-03-18T08:54:38.827Z,53.44
2023-03-18T08:58:05.912Z,53.41
2023-03-18T09:01:33.240Z,53.27
2023-03-18T09:05:00.063Z,53.19
2023-03-18T09:08:31.548Z,53.21
2023-03-18T09:11:58.206Z,53.27
2023-03-18T09:15:27.662Z,53.09
2023-03-18T09:18:54.440Z,53.06
2023-03-18T09:22:22.036Z,52.81
2023-03-18T09:25:50.505Z,52.37
2023-03-18T09:29:17.456Z,52.63
2023-03-18T09:32:44.962Z,52.22
2023-03-18T09:36:14.124Z,52.42
2023-03-18T09:39:44.984Z,52.32
2023-03-18T09:43:30.400Z,52.29
2023-03-18T09:47:25.754Z,52.33
2023-03-18T09:51:04.347Z,52.17
2023-03-18T09:54:39.555Z,52.15
2023-03-18T09:58:17.503Z,52.11
2023-03-18T10:01:47.941Z,51.76
2023-03-18T10:05:19.811Z,51.62
2023-03-18T10:08:59.970Z,51.87
2023-03-18T10:12:36.062Z,51.83
2023-03-18T10:16:09.673Z,51.74
2023-03-18T10:19:38.792Z,51.50
2023-03-18T10:23:15.218Z,51.41
2023-03-18T10:26:49.078Z,51.12
2023-03-18T10:30:32.778Z,50.82
2023-03-18T10:33:59.218Z,50.51
2023-03-18T10:37:36.529Z,50.64
2023-03-18T10:41:10.804Z,50.24
2023-03-18T10:44:43.027Z,50.27
2023-03-18T10:48:16.866Z,50.19
2023-03-18T10:51:52.743Z,50.12
2023-03-18T10:55:23.082Z,50.07
2023-03-18T10:58:51.167Z,49.87
2023-03-18T11:02:23.035Z,49.62
2023-03-18T11:05:52.531Z,49.73
2023-03-18T11:09:22.944Z,49.80
2023-03-18T11:12:50.897Z,49.56
2023-03-18T11:16:30.184Z,49.58
2023-03-18T11:20:08.324Z,49.56
2023-03-18T11:23:49.291Z,49.38
2023-03-18T11:27:51.369Z,49.39
2023-03-18T11:31:25.259Z,48.88
2023-03-18T11:34:55.393Z,49.01
2023-03-18T11:38:28.926Z,49.01
2023-03-18T11:41:57.965Z,48.90
2023-03-18T11:45:48.981Z,48.80
2023-03-18T11:49:19.661Z,48.96
2023-03-18T11:52:53.302Z,48.68
2023-03-18T11:56:31.028Z,48.56
2023-03-18T12:00:17.848Z,48.67
2023-03-18T12:04:08.103Z,48.55
2023-03-18T12:07:56.648Z,48.69
2023-03-18T12:11:33.327Z,48.65
2023-03-18T12:15:11.904Z,48.16
2023-03-18T12:18:59.377Z,48.26
2023-03-18T12:23:00.404Z,48.28
2023-03-18T12:26:36.443Z,47.96
2023-03-18T12:30:38.522Z,48.21
2023-03-18T12:34:06.351Z,48.01
2023-03-18T12:37:44.856Z,48.11
2023-03-18T12:41:17.941Z,47.81
2023-03-18T12:44:58.035Z,48.11
2023-03-18T12:48:44.933Z,47.99
2023-03-18T12:52:19.647Z,47.79
2023-03-18T12:55:49.466Z,48.03
2023-03-18T12:59:25.920Z,47.77
2023-03-18T13:03:00.248Z,47.79
2023-03-18T13:06:32.309Z,47.75
2023-03-18T13:10:04.561Z,47.54
2023-03-18T13:13:34.791Z,47.55
2023-03-18T13:17:02.793Z,47.53
2023-03-18T13:20:34.733Z,47.54
2023-03-18T13:24:32.388Z,47.69
2023-03-18T13:28:19.454Z,47.48
2023-03-18T13:31:56.331Z,47.43
2023-03-18T13:35:47.409Z,47.04
2023-03-18T13:39:37.349Z,46.94
2023-03-18T13:43:04.709Z,47.03
2023-03-18T13:46:35.200Z,46.93
2023-03-18T13:50:05.840Z,46.88
2023-03-18T13:53:35.809Z,47.00
2023-03-18T13:57:20.656Z,46.84
2023-03-18T14:01:09.317Z,46.87
2023-03-18T14:04:49.508Z,46.87
2023-03-18T14:08:38.625Z,46.56
2023-03-18T14:12:39.205Z,46.44
2023-03-18T14:16:12.923Z,46.57
2023-03-18T14:19:42.560Z,46.32
2023-03-18T14:23:39.641Z,46.31
2023-03-18T14:27:21.978Z,46.37
2023-03-18T14:30:56.293Z,46.38
2023-03-18T14:34:35.472Z,46.27
2023-03-18T14:38:12.842Z,46.14
2023-03-18T14:41:43.635Z,46.02
2023-03-18T14:45:21.346Z,45.88
2023-03-18T14:48:52.607Z,45.95
2023-03-18T14:52:30.064Z,46.01
2023-03-18T14:55:57.432Z,46.01
2023-03-18T14:59:27.279Z,46.03
2023-03-18T15:03:05.774Z,46.08
2023-03-18T15:06:33.929Z,46.05
2023-03-18T15:10:02.870Z,45.98
2023-03-18T15:13:30.736Z,45.98
2023-03-18T15:17:01.830Z,46.08
2023-03-18T15:20:29.966Z,45.63
2023-03-18T15:24:00.183Z,45.65
2023-03-18T15:27:31.242Z,45.48
2023-03-18T15:31:02.865Z,45.43
2023-03-18T15:34:36.315Z,45.55
2023-03-18T15:38:14.851Z,45.71
2023-03-18T15:41:43.719Z,45.83
2023-03-18T15:45:19.703Z,45.68
2023-03-18T15:48:54.985Z,45.87
2023-03-18T15:52:29.514Z,45.83
2023-03-18T15:55:59.158Z,45.77
2023-03-18T15:59:33.496Z,45.76
2023-03-18T16:03:04.206Z,45.94
2023-03-18T16:06:34.683Z,45.87
2023-03-18T16:10:01.899Z,45.99
2023-03-18T16:13:34.757Z,46.14
2023-03-18T16:17:02.122Z,46.01
2023-03-18T16:20:31.905Z,46.37
2023-03-18T16:23:59.972Z,46.26
2023-03-18T16:27:34.952Z,46.29
2023-03-18T16:31:02.048Z,46.33
2023-03-18T16:34:29.792Z,46.46
2023-03-18T16:37:57.724Z,46.42
2023-03-18T16:41:25.940Z,46.43
2023-03-18T16:44:53.746Z,46.67
2023-03-18T16:48:23.600Z,46.48
2023-03-18T16:51:54.777Z,46.71
2023-03-18T16:55:24.244Z,46.74
2023-03-18T16:58:52.824Z,46.76
2023-03-18T17:02:32.987Z,46.94
2023-03-18T17:06:00.521Z,46.97
2023-03-18T17:09:28.431Z,47.12
2023-03-18T17:12:59.786Z,47.08
2023-03-18T17:16:31.024Z,47.17
2023-03-18T17:20:00.088Z,47.27
2023-03-18T17:23:30.631Z,47.28
2023-03-18T17:26:58.958Z,47.43
2023-03-18T17:30:30.274Z,47.45
2023-03-18T17:34:03.692Z,47.63
2023-03-18T17:37:33.029Z,47.74
2023-03-18T17:41:03.305Z,47.74
2023-03-18T17:44:32.467Z,47.92
2023-03-18T17:48:16.300Z,47.90
2023-03-18T17:51:48.884Z,47.97
2023-03-18T17:55:25.370Z,48.06
2023-03-18T17:59:00.221Z,48.07
2023-03-18T18:02:32.947Z,48.16
2023-03-18T18:06:05.316Z,48.22
2023-03-18T18:09:34.325Z,48.25
2023-03-18T18:13:03.133Z,48.32
2023-03-18T18:16:31.490Z,48.36
2023-03-18T18:20:01.374Z,48.55
2023-03-18T18:23:36.155Z,48.54
2023-03-18T18:27:07.580Z,48.70
2023-03-18T18:30:35.702Z,48.71
2023-03-18T18:34:02.691Z,48.75
2023-03-18T18:37:33.912Z,48.86
2023-03-18T18:41:03.752Z,48.88
2023-03-18T18:44:32.715Z,49.03
2023-03-18T18:48:00.257Z,49.16
2023-03-18T18:51:28.045Z,49.26
2023-03-18T18:54:58.402Z,49.14
2023-03-18T18:58:29.133Z,49.25
2023-03-18T19:02:01.208Z,49.50
2023-03-18T19:05:31.052Z,49.45
2023-03-18T19:08:59.872Z,49.52
2023-03-18T19:12:34.896Z,49.79
2023-03-18T19:16:04.842Z,49.74
2023-03-18T19:19:34.855Z,49.83
2023-03-18T19:23:03.688Z,49.94
2023-03-18T19:26:32.217Z,50.14
2023-03-18T19:30:01.687Z,50.36
2023-03-18T19:33:30.128Z,50.35
2023-03-18T19:36:58.797Z,50.29
2023-03-18T19:40:31.634Z,50.51
2023-03-18T19:44:04.363Z,50.50
2023-03-18T19:47:33.498Z,50.59
2023-03-18T19:51:00.344Z,50.46
2023-03-18T19:54:33.009Z,50.58
2023-03-18T19:58:01.359Z,50.64
2023-03-18T20:01:30.979Z,50.80
2023-03-18T20:05:00.258Z,50.87
2023-03-18T20:08:29.236Z,51.04
2023-03-18T20:12:05.974Z,51.22
2023-03-18T20:15:34.125Z,50.95
2023-03-18T20:19:02.132Z,51.33
2023-03-18T20:22:36.578Z,51.38
2023-03-18T20:26:04.061Z,51.79
2023-03-18T20:29:33.559Z,51.42
2023-03-18T20:33:07.430Z,51.29
2023-03-18T20:36:36.037Z,51.66
2023-03-18T20:40:07.395Z,51.74
2023-03-18T20:43:35.003Z,51.67
2023-03-18T20:47:02.254Z,51.94
2023-03-18T20:50:31.512Z,51.92
2023-03-18T20:54:04.704Z,52.12
2023-03-18T20:57:36.079Z,52.49
2023-03-18T21:01:06.022Z,52.40
2023-03-18T21:04:34.993Z,52.45
2023-03-18T21:08:02.367Z,52.74
2023-03-18T21:11:33.362Z,52.91
2023-03-18T21:15:00.732Z,53.15
2023-03-18T21:18:29.377Z,53.03
2023-03-18T21:21:56.633Z,53.26
2023-03-18T21:25:27.515Z,53.28
2023-03-18T21:28:54.781Z,53.75
2023-03-18T21:32:31.847Z,53.67
2023-03-18T21:35:59.490Z,53.39
2023-03-18T21:39:26.874Z,53.35
2023-03-18T21:42:56.001Z,53.45
2023-03-18T21:46:27.353Z,53.83
2023-03-18T21:49:53.896Z,53.78
2023-03-18T21:53:27.405Z,53.88
2023-03-18T21:56:56.909Z,53.95
2023-03-18T22:00:25.418Z,53.97
2023-03-18T22:03:53.974Z,54.14
2023-03-18T22:07:23.159Z,54.05
2023-03-18T22:10:51.276Z,54.26
2023-03-18T22:14:18.442Z,54.22
2023-03-18T22:17:47.990Z,54.16
2023-03-18T22:21:20.547Z,54.22
2023-03-18T22:24:48.246Z,54.34
2023-03-18T22:28:15.812Z,54.37
2023-03-18T22:31:43.417Z,54.38
2023-03-18T22:35:17.286Z,54.19
2023-03-18T22:38:46.892Z,54.54
2023-03-18T22:42:19.492Z,54.42
2023-03-18T22:45:46.127Z,54.62
2023-03-18T22:49:13.055Z,54.91
2023-03-18T22:52:40.753Z,54.58
2023-03-18T22:56:15.684Z,54.74
2023-03-18T22:59:42.759Z,54.80
2023-03-18T23:03:15.142Z,54.85
2023-03-18T23:06:51.290Z,54.97
2023-03-18T23:10:19.484Z,55.07
2023-03-18T23:13:51.064Z,55.02
2023-03-18T23:17:19.940Z,55.04
2023-03-18T23:20:49.063Z,54.96
2023-03-18T23:24:16.270Z,55.11
2023-03-18T23:27:46.292Z,55.13
2023-03-18T23:31:15.790Z,55.11
2023-03-18T23:34:43.359Z,55.26
2023-03-18T23:38:10.243Z,55.20
2023-03-18T23:41:37.876Z,55.23
2023-03-18T23:45:05.452Z,55.31
2023-03-18T23:48:33.048Z,55.32
2023-03-18T23:52:00.513Z,55.39
2023-03-18T23:55:35.447Z,55.45
2023-03-18T23:59:03.759Z,55.48
